Time;durP1;ratioP1;P1;durP2;ratioP2;P2;SDS_P1;SDS_P2;PMS_P1;PMS_P2;Temp;Humidity;BMP_temperature;BMP_pressure;BME280_temperature;BME280_humidity;BME280_pressure;Samples;Min_cycle;Max_cycle;Signal;HPM_P1;HPM_P2
2023/04/21 00:00:07;;;;;;;72.88;40.33;;;;;;;;;;5017550;28;20056;-89
2023/04/21 00:02:38;;;;;;;66.53;40.83;;;;;;;;;;5017296;28;20489;-89
2023/04/21 00:05:09;;;;;;;78.03;43.78;;;;;;;;;;5035062;28;20088;-89
2023/04/21 00:07:37;;;;;;;70.70;41.03;;;;;;;;;;5017466;28;20045;-89
2023/04/21 00:10:08;;;;;;;68.25;41.22;;;;;;;;;;5017486;28;20575;-89
2023/04/21 00:12:35;;;;;;;69.00;40.78;;;;;;;;;;5034847;28;20049;-89
2023/04/21 00:15:02;;;;;;;65.68;39.88;;;;;;;;;;5017171;28;20050;-89
2023/04/21 00:17:32;;;;;;;60.53;38.03;;;;;;;;;;5017830;28;20056;-89
2023/04/21 00:19:59;;;;;;;62.92;38.25;;;;;;;;;;5034717;28;20045;-89
2023/04/21 00:22:26;;;;;;;60.83;38.10;;;;;;;;;;5034489;28;20049;-90
2023/04/21 00:24:53;;;;;;;60.00;35.78;;;;;;;;;;5017125;28;20053;-89
2023/04/21 00:27:20;;;;;;;59.45;35.95;;;;;;;;;;5034376;28;20042;-89
2023/04/21 00:29:48;;;;;;;59.72;35.88;;;;;;;;;;5017160;28;20065;-89
2023/04/21 00:32:15;;;;;;;54.42;34.90;;;;;;;;;;5017060;28;20049;-89
2023/04/21 00:34:42;;;;;;;64.60;37.42;;;;;;;;;;5016965;28;20084;-90
2023/04/21 00:37:09;;;;;;;55.42;35.65;;;;;;;;;;5016872;28;20518;-89
2023/04/21 00:39:37;;;;;;;56.60;34.30;;;;;;;;;;5034588;28;20056;-89
2023/04/21 00:42:04;;;;;;;52.08;33.15;;;;;;;;;;5016696;28;20045;-89
2023/04/21 00:44:31;;;;;;;59.00;35.53;;;;;;;;;;5033813;28;20049;-90
2023/04/21 00:46:58;;;;;;;54.00;33.88;;;;;;;;;;5016923;28;20048;-89
2023/04/21 00:49:26;;;;;;;56.60;35.03;;;;;;;;;;5034034;28;20082;-89
2023/04/21 00:51:54;;;;;;;62.17;37.20;;;;;;;;;;5033898;28;20041;-89
2023/04/21 00:54:24;;;;;;;60.25;36.33;;;;;;;;;;5016421;28;20552;-90
2023/04/21 00:56:51;;;;;;;61.05;35.00;;;;;;;;;;5033691;28;20049;-89
2023/04/21 00:59:18;;;;;;;64.75;37.13;;;;;;;;;;5034141;28;20049;-90
2023/04/21 01:01:46;;;;;;;57.03;34.67;;;;;;;;;;5016698;28;20064;-89
2023/04/21 01:04:13;;;;;;;55.63;34.63;;;;;;;;;;5033558;28;20111;-89
2023/04/21 01:06:41;;;;;;;66.60;37.47;;;;;;;;;;5016541;28;20081;-90
2023/04/21 01:09:08;;;;;;;61.15;37.67;;;;;;;;;;5033444;28;20160;-89
2023/04/21 01:11:36;;;;;;;63.92;36.50;;;;;;;;;;5016438;28;20049;-89
2023/04/21 01:14:04;;;;;;;61.55;34.88;;;;;;;;;;5016386;28;20559;-89
2023/04/21 01:16:32;;;;;;;65.45;37.35;;;;;;;;;;5033425;28;20056;-89
2023/04/21 01:19:04;;;;;;;63.15;37.72;;;;;;;;;;5016234;28;20095;-89
2023/04/21 01:21:41;;;;;;;68.68;37.80;;;;;;;;;;5015647;28;20064;-89
2023/04/21 01:24:09;;;;;;;65.75;36.10;;;;;;;;;;5016350;28;20045;-89
2023/04/21 01:26:36;;;;;;;66.47;35.97;;;;;;;;;;5015994;28;20422;-89
2023/04/21 01:29:03;;;;;;;63.53;36.17;;;;;;;;;;5033332;28;20811;-89
2023/04/21 01:31:30;;;;;;;60.88;34.88;;;;;;;;;;5033158;28;20046;-89
2023/04/21 01:33:57;;;;;;;60.22;33.33;;;;;;;;;;5015796;28;20068;-89
2023/04/21 01:36:25;;;;;;;57.47;33.45;;;;;;;;;;5015937;28;20049;-89
2023/04/21 01:38:52;;;;;;;65.55;36.45;;;;;;;;;;5016105;28;20046;-89
2023/04/21 01:41:19;;;;;;;62.45;36.67;;;;;;;;;;5015740;28;20060;-89
2023/04/21 01:43:46;;;;;;;68.18;39.08;;;;;;;;;;5014809;28;20056;-89
2023/04/21 01:46:14;;;;;;;64.85;36.97;;;;;;;;;;5015746;28;20414;-89
2023/04/21 01:48:41;;;;;;;68.20;36.13;;;;;;;;;;5015970;28;20054;-89
2023/04/21 01:51:08;;;;;;;65.85;36.33;;;;;;;;;;5033340;28;20075;-89
2023/04/21 01:53:35;;;;;;;61.03;33.97;;;;;;;;;;5033307;28;20045;-89
2023/04/21 01:56:03;;;;;;;57.95;34.08;;;;;;;;;;5019970;28;20053;-88
2023/04/21 01:58:30;;;;;;;56.95;33.58;;;;;;;;;;5018623;28;20045;-89
2023/04/21 02:00:57;;;;;;;67.25;36.10;;;;;;;;;;5037039;28;20065;-89
2023/04/21 02:03:24;;;;;;;72.35;37.78;;;;;;;;;;5036780;28;20060;-89
2023/04/21 02:05:52;;;;;;;78.60;40.33;;;;;;;;;;5019912;28;20045;-89
2023/04/21 02:08:19;;;;;;;80.47;39.78;;;;;;;;;;5037228;28;20050;-89
2023/04/21 02:10:46;;;;;;;102.03;44.53;;;;;;;;;;5019752;28;20477;-89
2023/04/21 02:13:13;;;;;;;95.88;43.92;;;;;;;;;;5019292;28;20406;-89
2023/04/21 02:15:40;;;;;;;92.18;42.90;;;;;;;;;;5019059;28;20053;-89
2023/04/21 02:18:08;;;;;;;82.10;42.00;;;;;;;;;;5019345;28;20057;-89
2023/04/21 02:20:35;;;;;;;80.45;41.55;;;;;;;;;;5019249;28;20080;-89
2023/04/21 02:23:02;;;;;;;88.22;43.33;;;;;;;;;;5019536;28;20060;-89
2023/04/21 02:25:30;;;;;;;85.35;40.88;;;;;;;;;;5019468;28;20071;-89
2023/04/21 02:27:57;;;;;;;75.13;38.75;;;;;;;;;;5019167;28;20046;-89
2023/04/21 02:30:24;;;;;;;97.32;43.92;;;;;;;;;;5036387;28;20057;-89
2023/04/21 02:32:51;;;;;;;103.82;45.25;;;;;;;;;;5036551;28;20091;-89
2023/04/21 02:35:18;;;;;;;79.80;40.47;;;;;;;;;;5019392;28;20042;-89
2023/04/21 02:37:45;;;;;;;76.15;40.67;;;;;;;;;;5019385;28;20045;-89
2023/04/21 02:40:13;;;;;;;81.10;41.53;;;;;;;;;;5019534;28;20409;-89
2023/04/21 02:42:40;;;;;;;83.93;40.80;;;;;;;;;;5018992;28;20045;-89
2023/04/21 02:45:07;;;;;;;95.13;42.88;;;;;;;;;;5019128;28;20152;-89
2023/04/21 02:47:35;;;;;;;85.32;41.55;;;;;;;;;;5020228;28;20504;-89
2023/04/21 02:50:03;;;;;;;77.00;40.00;;;;;;;;;;5038478;28;20052;-89
2023/04/21 02:52:30;;;;;;;87.70;42.63;;;;;;;;;;5023918;28;20103;-90
2023/04/21 02:54:57;;;;;;;76.80;39.58;;;;;;;;;;5018590;28;20053;-89
2023/04/21 02:57:24;;;;;;;76.05;40.50;;;;;;;;;;5035688;28;20319;-89
2023/04/21 02:59:51;;;;;;;74.88;38.28;;;;;;;;;;5018765;28;20042;-89
2023/04/21 03:02:18;;;;;;;71.28;37.83;;;;;;;;;;5036065;28;20433;-89
2023/04/21 03:04:46;;;;;;;74.20;38.65;;;;;;;;;;5018139;28;20084;-89
2023/04/21 03:07:13;;;;;;;70.82;39.80;;;;;;;;;;5017685;28;20049;-89
2023/04/21 03:09:41;;;;;;;84.82;42.20;;;;;;;;;;5035867;28;20085;-89
2023/04/21 03:12:08;;;;;;;73.75;37.67;;;;;;;;;;5036367;28;20118;-90
2023/04/21 03:14:35;;;;;;;77.80;40.80;;;;;;;;;;5018312;28;20058;-89
2023/04/21 03:17:02;;;;;;;92.80;40.33;;;;;;;;;;5018468;28;20508;-89
2023/04/21 03:19:30;;;;;;;79.32;38.67;;;;;;;;;;5018392;28;20517;-89
2023/04/21 03:21:57;;;;;;;74.13;39.20;;;;;;;;;;5018296;28;20054;-89
2023/04/21 03:24:26;;;;;;;88.50;43.05;;;;;;;;;;5018208;28;20053;-89
2023/04/21 03:26:55;;;;;;;87.95;42.10;;;;;;;;;;5018101;28;20049;-89
2023/04/21 03:29:22;;;;;;;83.55;41.85;;;;;;;;;;5018060;28;20064;-89
2023/04/21 03:31:50;;;;;;;82.97;41.20;;;;;;;;;;5018330;28;20059;-89
2023/04/21 03:34:17;;;;;;;94.22;41.83;;;;;;;;;;5018376;28;20107;-89
2023/04/21 03:36:44;;;;;;;80.88;40.97;;;;;;;;;;5035309;28;20080;-89
2023/04/21 03:39:11;;;;;;;78.00;40.13;;;;;;;;;;5035281;28;20057;-89
2023/04/21 03:41:46;;;;;;;74.97;37.75;;;;;;;;;;5019104;28;20050;-88
2023/04/21 03:44:14;;;;;;;70.57;36.50;;;;;;;;;;5017970;28;20052;-89
2023/04/21 03:46:41;;;;;;;68.22;37.55;;;;;;;;;;5017857;28;20046;-89
2023/04/21 03:49:08;;;;;;;82.45;41.45;;;;;;;;;;5017847;28;20387;-89
2023/04/21 03:51:35;;;;;;;85.00;41.88;;;;;;;;;;5017759;28;20045;-88
2023/04/21 03:54:02;;;;;;;99.65;44.67;;;;;;;;;;5017714;28;20053;-89
2023/04/21 03:56:30;;;;;;;82.65;40.40;;;;;;;;;;5017480;28;20413;-89
2023/04/21 03:58:57;;;;;;;89.00;42.35;;;;;;;;;;5035041;28;20085;-89
2023/04/21 04:01:24;;;;;;;96.50;44.40;;;;;;;;;;5017600;28;20479;-88
2023/04/21 04:03:51;;;;;;;87.38;42.17;;;;;;;;;;5017651;28;20409;-89
2023/04/21 04:06:19;;;;;;;97.93;43.83;;;;;;;;;;5017353;28;20057;-89
2023/04/21 04:08:46;;;;;;;94.10;44.65;;;;;;;;;;5017559;28;20132;-89
2023/04/21 04:11:14;;;;;;;96.80;45.50;;;;;;;;;;5017485;28;20135;-89
2023/04/21 04:13:41;;;;;;;99.20;43.47;;;;;;;;;;5034947;28;20049;-89
2023/04/21 04:16:08;;;;;;;95.93;43.35;;;;;;;;;;5016824;28;20088;-89
2023/04/21 04:18:35;;;;;;;99.05;45.15;;;;;;;;;;5034158;28;20057;-88
2023/04/21 04:21:06;;;;;;;106.63;45.63;;;;;;;;;;5034788;28;20405;-89
2023/04/21 04:23:34;;;;;;;111.28;45.30;;;;;;;;;;5017220;28;20049;-88
2023/04/21 04:26:04;;;;;;;83.20;42.22;;;;;;;;;;5017295;28;20076;-89
2023/04/21 04:28:32;;;;;;;73.82;39.13;;;;;;;;;;5017401;28;20053;-89
2023/04/21 04:30:59;;;;;;;73.20;39.13;;;;;;;;;;5013477;28;20058;-89
2023/04/21 04:33:27;;;;;;;67.72;38.85;;;;;;;;;;5013499;28;20042;-89
2023/04/21 04:35:54;;;;;;;67.78;37.58;;;;;;;;;;5014712;28;20050;-89
2023/04/21 04:38:21;;;;;;;68.10;36.35;;;;;;;;;;5013778;28;20057;-88
2023/04/21 04:40:56;;;;;;;79.70;39.00;;;;;;;;;;5013454;28;20046;-88
2023/04/21 04:43:24;;;;;;;70.05;39.42;;;;;;;;;;5014465;28;20107;-89
2023/04/21 04:45:52;;;;;;;65.32;37.50;;;;;;;;;;5013483;28;20046;-89
2023/04/21 04:48:19;;;;;;;71.13;38.22;;;;;;;;;;5013541;28;20410;-89
2023/04/21 04:50:46;;;;;;;64.50;37.47;;;;;;;;;;5013558;28;20148;-89
2023/04/21 04:53:13;;;;;;;64.35;36.92;;;;;;;;;;5014433;28;20053;-89
2023/04/21 04:55:41;;;;;;;71.93;38.22;;;;;;;;;;5014335;28;20053;-89
2023/04/21 04:58:08;;;;;;;61.90;36.90;;;;;;;;;;5014035;28;20054;-89
2023/04/21 05:00:35;;;;;;;61.72;36.47;;;;;;;;;;5014068;28;20042;-88
2023/04/21 05:03:03;;;;;;;59.20;35.28;;;;;;;;;;5013205;28;20561;-89
2023/04/21 05:05:30;;;;;;;61.45;37.28;;;;;;;;;;5013908;28;20045;-89
2023/04/21 05:07:57;;;;;;;76.30;39.15;;;;;;;;;;5013666;28;20054;-89
2023/04/21 05:10:25;;;;;;;75.75;38.50;;;;;;;;;;5013242;28;20045;-89
2023/04/21 05:12:52;;;;;;;67.97;37.63;;;;;;;;;;5012770;28;20045;-89
2023/04/21 05:15:19;;;;;;;67.45;38.92;;;;;;;;;;5014039;28;20483;-89
2023/04/21 05:17:46;;;;;;;69.43;39.15;;;;;;;;;;5012968;28;20049;-89
2023/04/21 05:20:14;;;;;;;61.08;37.47;;;;;;;;;;5013174;28;20046;-89
2023/04/21 05:22:41;;;;;;;63.50;35.72;;;;;;;;;;5026806;28;20140;-89
2023/04/21 05:25:11;;;;;;;59.28;34.75;;;;;;;;;;5016374;28;20050;-89
2023/04/21 05:27:38;;;;;;;56.58;32.50;;;;;;;;;;5033365;28;20053;-89
2023/04/21 05:30:05;;;;;;;51.33;33.03;;;;;;;;;;5015409;28;20068;-89
2023/04/21 05:32:32;;;;;;;51.85;33.22;;;;;;;;;;5016487;28;20059;-89
2023/04/21 05:35:00;;;;;;;47.42;31.30;;;;;;;;;;5016463;28;20452;-89
2023/04/21 05:37:27;;;;;;;57.20;32.47;;;;;;;;;;5015822;28;20045;-89
2023/04/21 05:39:54;;;;;;;50.50;32.03;;;;;;;;;;5016304;28;20129;-89
2023/04/21 05:42:21;;;;;;;55.10;33.13;;;;;;;;;;5033678;28;20372;-89
2023/04/21 05:44:49;;;;;;;57.38;32.50;;;;;;;;;;5016080;28;20059;-89
2023/04/21 05:47:16;;;;;;;53.30;32.88;;;;;;;;;;5016178;28;20049;-89
2023/04/21 05:49:48;;;;;;;50.00;30.90;;;;;;;;;;5016476;28;20053;-89
2023/04/21 05:52:16;;;;;;;47.15;29.73;;;;;;;;;;5016015;28;20081;-89
2023/04/21 05:54:44;;;;;;;49.42;30.75;;;;;;;;;;5015926;28;20454;-89
2023/04/21 05:57:11;;;;;;;52.75;30.77;;;;;;;;;;5015821;28;20045;-90
2023/04/21 05:59:38;;;;;;;46.28;29.75;;;;;;;;;;5016600;28;20085;-89
2023/04/21 06:02:05;;;;;;;44.65;29.70;;;;;;;;;;5033590;28;20093;-89
2023/04/21 06:04:32;;;;;;;44.40;28.95;;;;;;;;;;5016133;28;20052;-89
2023/04/21 06:07:07;;;;;;;45.03;28.50;;;;;;;;;;5015889;28;20089;-90
2023/04/21 06:09:35;;;;;;;46.55;28.13;;;;;;;;;;5015816;28;20504;-89
2023/04/21 06:12:02;;;;;;;40.70;27.35;;;;;;;;;;5016315;28;20084;-89
2023/04/21 06:14:29;;;;;;;38.92;26.63;;;;;;;;;;5016103;28;20053;-90
2023/04/21 06:16:57;;;;;;;41.83;25.17;;;;;;;;;;5016017;28;20409;-88
2023/04/21 06:19:24;;;;;;;36.53;24.10;;;;;;;;;;5033620;28;20136;-89
2023/04/21 06:21:51;;;;;;;35.92;24.45;;;;;;;;;;5015743;28;20056;-89
2023/04/21 06:24:24;;;;;;;35.95;22.98;;;;;;;;;;5033514;28;20132;-89
2023/04/21 06:26:52;;;;;;;31.77;20.80;;;;;;;;;;5033217;28;20107;-89
2023/04/21 06:29:19;;;;;;;30.92;19.08;;;;;;;;;;5015605;28;20391;-89
2023/04/21 06:31:47;;;;;;;27.45;18.55;;;;;;;;;;5033016;28;20049;-90
2023/04/21 06:34:15;;;;;;;25.38;17.75;;;;;;;;;;5015844;28;20119;-90
2023/04/21 06:36:42;;;;;;;24.98;18.48;;;;;;;;;;5016032;28;20049;-90
2023/04/21 06:39:09;;;;;;;30.60;18.90;;;;;;;;;;5015978;28;20045;-89
2023/04/21 06:41:36;;;;;;;26.17;17.60;;;;;;;;;;5019417;28;20050;-90
2023/04/21 06:44:04;;;;;;;28.25;17.65;;;;;;;;;;5019387;28;20047;-90
2023/04/21 06:46:31;;;;;;;30.63;18.85;;;;;;;;;;5019395;28;20053;-90
2023/04/21 06:48:58;;;;;;;25.60;17.77;;;;;;;;;;5019788;28;20049;-89
2023/04/21 06:51:25;;;;;;;31.23;17.75;;;;;;;;;;5036642;28;20054;-89
2023/04/21 06:53:52;;;;;;;24.85;16.90;;;;;;;;;;5036624;28;20056;-90
2023/04/21 06:56:20;;;;;;;22.88;17.23;;;;;;;;;;5036442;28;20084;-91
2023/04/21 06:58:47;;;;;;;24.02;16.63;;;;;;;;;;5019036;28;20140;-90
2023/04/21 07:01:14;;;;;;;26.10;16.85;;;;;;;;;;5019451;28;20057;-90
2023/04/21 07:03:41;;;;;;;19.70;15.07;;;;;;;;;;5019347;28;20049;-90
2023/04/21 07:06:09;;;;;;;27.42;17.17;;;;;;;;;;5036758;28;20096;-91
2023/04/21 07:08:36;;;;;;;26.65;15.07;;;;;;;;;;5037401;28;20053;-90
2023/04/21 07:11:04;;;;;;;27.08;16.00;;;;;;;;;;5041799;28;20049;-90
2023/04/21 07:13:31;;;;;;;18.95;14.75;;;;;;;;;;5036073;28;20051;-90
2023/04/21 07:15:58;;;;;;;20.10;14.70;;;;;;;;;;5018990;28;20053;-90
2023/04/21 07:18:25;;;;;;;27.10;15.85;;;;;;;;;;5018588;28;20056;-91
2023/04/21 07:20:53;;;;;;;22.65;15.35;;;;;;;;;;5035924;28;20064;-91
2023/04/21 07:23:20;;;;;;;26.67;15.25;;;;;;;;;;5018563;28;20049;-90
2023/04/21 07:25:47;;;;;;;21.98;14.52;;;;;;;;;;5018142;28;20056;-91
2023/04/21 07:28:15;;;;;;;22.40;14.25;;;;;;;;;;5018503;28;20085;-90
2023/04/21 07:30:42;;;;;;;19.90;13.35;;;;;;;;;;5018474;28;20056;-91
2023/04/21 07:33:09;;;;;;;19.02;13.73;;;;;;;;;;5035701;28;20053;-91
2023/04/21 07:35:37;;;;;;;17.73;13.00;;;;;;;;;;5018721;28;20072;-92
2023/04/21 07:38:04;;;;;;;20.67;13.70;;;;;;;;;;5018116;28;20581;-90
2023/04/21 07:40:32;;;;;;;22.35;14.07;;;;;;;;;;5035733;28;20111;-91
2023/04/21 07:42:59;;;;;;;19.95;13.77;;;;;;;;;;5035439;28;20050;-91
2023/04/21 07:45:26;;;;;;;22.52;13.13;;;;;;;;;;5017973;28;20045;-91
2023/04/21 07:47:53;;;;;;;16.70;12.65;;;;;;;;;;5018251;28;20046;-91
2023/04/21 07:50:21;;;;;;;16.52;11.55;;;;;;;;;;5018067;28;20045;-92
2023/04/21 07:52:48;;;;;;;16.83;11.02;;;;;;;;;;5017949;28;20057;-92
2023/04/21 07:55:15;;;;;;;19.55;11.35;;;;;;;;;;5035257;28;20056;-93
2023/04/21 07:57:42;;;;;;;16.50;11.45;;;;;;;;;;5017012;28;20045;-92
2023/04/21 08:00:10;;;;;;;15.82;11.00;;;;;;;;;;5035303;28;20049;-91
2023/04/21 08:02:37;;;;;;;14.25;9.68;;;;;;;;;;5018133;28;20549;-92
2023/04/21 08:05:05;;;;;;;13.43;8.45;;;;;;;;;;5017827;28;20072;-92
2023/04/21 08:07:32;;;;;;;10.95;8.73;;;;;;;;;;5035125;28;20049;-92
2023/04/21 08:09:59;;;;;;;10.48;8.95;;;;;;;;;;5017458;28;20109;-93
2023/04/21 08:12:27;;;;;;;15.52;8.95;;;;;;;;;;5017873;28;20045;-91
2023/04/21 08:14:54;;;;;;;14.50;8.48;;;;;;;;;;5017721;28;20401;-91
2023/04/21 08:17:24;;;;;;;13.27;8.82;;;;;;;;;;5001802;28;20077;-93
2023/04/21 08:19:51;;;;;;;11.95;8.30;;;;;;;;;;4997961;28;20422;-92
2023/04/21 08:22:19;;;;;;;10.40;7.70;;;;;;;;;;5014758;28;20141;-91
2023/04/21 08:24:46;;;;;;;12.35;8.20;;;;;;;;;;4997597;28;20115;-91
2023/04/21 08:27:13;;;;;;;11.38;7.82;;;;;;;;;;4998009;28;20053;-91
2023/04/21 08:29:40;;;;;;;11.23;8.10;;;;;;;;;;4997715;28;20061;-91
2023/04/21 08:32:08;;;;;;;8.70;7.57;;;;;;;;;;4997869;28;20124;-92
2023/04/21 08:34:35;;;;;;;8.23;6.88;;;;;;;;;;4997589;28;20042;-91
2023/04/21 08:37:02;;;;;;;8.48;7.03;;;;;;;;;;5014561;28;20052;-91
2023/04/21 08:39:29;;;;;;;11.13;7.00;;;;;;;;;;4997644;28;20068;-90
2023/04/21 08:41:58;;;;;;;10.90;6.90;;;;;;;;;;4997849;28;20050;-91
2023/04/21 08:44:25;;;;;;;8.85;7.13;;;;;;;;;;4997892;28;20406;-91
2023/04/21 08:46:55;;;;;;;10.88;6.32;;;;;;;;;;4997379;28;20133;-91
2023/04/21 08:49:24;;;;;;;14.02;6.57;;;;;;;;;;4997404;28;20137;-91
2023/04/21 08:51:51;;;;;;;13.25;6.20;;;;;;;;;;5014477;28;20046;-92
2023/04/21 08:54:18;;;;;;;9.20;6.20;;;;;;;;;;5014739;28;20049;-91
2023/04/21 08:56:47;;;;;;;9.13;5.57;;;;;;;;;;4997386;28;20046;-92
2023/04/21 08:59:14;;;;;;;7.40;4.53;;;;;;;;;;4997042;28;20049;-91
2023/04/21 09:02:00;;;;;;;8.93;5.57;;;;;;;;;;4997486;28;20164;-92
2023/04/21 09:04:29;;;;;;;6.18;4.70;;;;;;;;;;4996240;28;20046;-92
2023/04/21 09:06:57;;;;;;;7.78;5.50;;;;;;;;;;5014722;28;20369;-91
2023/04/21 09:09:25;;;;;;;7.10;5.53;;;;;;;;;;5014591;28;20057;-90
2023/04/21 09:11:56;;;;;;;7.97;4.88;;;;;;;;;;4997310;28;20052;-91
2023/04/21 09:14:28;;;;;;;10.27;5.18;;;;;;;;;;4997014;28;20056;-90
2023/04/21 09:17:03;;;;;;;5.87;4.33;;;;;;;;;;5014435;28;20462;-90
2023/04/21 09:19:33;;;;;;;7.85;4.93;;;;;;;;;;5014075;28;20485;-93
2023/04/21 09:22:00;;;;;;;8.10;4.57;;;;;;;;;;5014548;28;20136;-91
2023/04/21 09:24:28;;;;;;;5.20;4.68;;;;;;;;;;5014346;28;20053;-90
2023/04/21 09:26:55;;;;;;;7.22;4.97;;;;;;;;;;4996949;28;20145;-90
2023/04/21 09:29:23;;;;;;;7.72;4.70;;;;;;;;;;5013741;28;20057;-91
2023/04/21 09:31:51;;;;;;;6.22;4.90;;;;;;;;;;5014355;28;20050;-92
2023/04/21 09:34:25;;;;;;;4.25;3.90;;;;;;;;;;5014148;28;20069;-91
2023/04/21 09:37:02;;;;;;;4.70;3.75;;;;;;;;;;4992788;28;20392;-91
2023/04/21 09:39:30;;;;;;;4.45;4.05;;;;;;;;;;4996955;28;20136;-89
2023/04/21 09:42:17;;;;;;;7.75;3.90;;;;;;;;;;4999851;28;20053;-88
2023/04/21 09:44:44;;;;;;;5.20;3.72;;;;;;;;;;5014014;28;20133;-91
2023/04/21 09:47:22;;;;;;;7.85;4.45;;;;;;;;;;4998455;28;20049;-90
2023/04/21 09:49:51;;;;;;;5.78;3.67;;;;;;;;;;5013655;28;20089;-91
2023/04/21 09:52:22;;;;;;;5.63;3.38;;;;;;;;;;5013702;28;20117;-90
2023/04/21 09:54:50;;;;;;;4.30;3.45;;;;;;;;;;4996560;28;20496;-91
2023/04/21 09:57:24;;;;;;;4.38;3.17;;;;;;;;;;4996715;28;20054;-89
2023/04/21 09:59:51;;;;;;;;;;;;;;;;;;4997040;28;20049;-90
2023/04/21 10:02:19;;;;;;;4.30;3.38;;;;;;;;;;5013521;28;19929;-89
2023/04/21 10:04:46;;;;;;;6.90;3.53;;;;;;;;;;4996445;28;20054;-90
2023/04/21 10:07:14;;;;;;;5.20;3.55;;;;;;;;;;5013532;28;20454;-90
2023/04/21 10:09:44;;;;;;;4.97;3.42;;;;;;;;;;4996818;28;20414;-90
2023/04/21 10:12:13;;;;;;;4.15;2.92;;;;;;;;;;5013450;28;20084;-90
2023/04/21 10:14:40;;;;;;;3.78;2.92;;;;;;;;;;5013867;28;20512;-91
2023/04/21 10:17:11;;;;;;;4.50;3.00;;;;;;;;;;5000258;28;20053;-90
2023/04/21 10:19:47;;;;;;;4.03;2.80;;;;;;;;;;5017413;28;20060;-90
2023/04/21 10:22:14;;;;;;;3.85;3.00;;;;;;;;;;5017312;28;20045;-90
2023/04/21 10:24:43;;;;;;;2.85;2.58;;;;;;;;;;5000165;28;20058;-91
2023/04/21 10:27:11;;;;;;;2.70;2.50;;;;;;;;;;4999780;28;20042;-90
2023/04/21 10:29:39;;;;;;;3.33;2.30;;;;;;;;;;5017053;28;20069;-90
2023/04/21 10:32:41;;;;;;;4.18;3.15;;;;;;;;;;5002210;28;20073;-84
2023/04/21 10:35:09;;;;;;;3.00;2.33;;;;;;;;;;5016955;28;20049;-92
2023/04/21 10:37:37;;;;;;;3.42;2.15;;;;;;;;;;4999601;28;20042;-88
2023/04/21 10:40:08;;;;;;;3.13;2.70;;;;;;;;;;5016980;28;20104;-92
2023/04/21 10:42:35;;;;;;;3.85;2.20;;;;;;;;;;4999765;28;20077;-90
2023/04/21 10:45:07;;;;;;;4.25;2.55;;;;;;;;;;4999752;28;20050;-87
2023/04/21 10:47:47;;;;;;;4.32;2.20;;;;;;;;;;4999627;28;20056;-92
2023/04/21 10:50:16;;;;;;;4.40;2.40;;;;;;;;;;4999878;28;20046;-91
2023/04/21 10:52:44;;;;;;;6.25;2.58;;;;;;;;;;4999323;28;20050;-90
2023/04/21 10:55:14;;;;;;;3.97;2.40;;;;;;;;;;4999392;28;20046;-87
2023/04/21 10:57:43;;;;;;;2.70;2.45;;;;;;;;;;4999410;28;20074;-91
2023/04/21 11:00:11;;;;;;;3.22;2.38;;;;;;;;;;5016273;28;20486;-87
2023/04/21 11:02:38;;;;;;;6.05;2.75;;;;;;;;;;4999122;28;20089;-89
2023/04/21 11:05:11;;;;;;;3.08;2.80;;;;;;;;;;4999708;28;20085;-90
2023/04/21 11:07:38;;;;;;;3.80;2.90;;;;;;;;;;4999392;28;20046;-90
2023/04/21 11:10:07;;;;;;;5.35;3.10;;;;;;;;;;4999086;28;20538;-90
2023/04/21 11:12:37;;;;;;;4.90;3.10;;;;;;;;;;4999359;28;20054;-91
2023/04/21 11:15:06;;;;;;;3.28;2.30;;;;;;;;;;4999299;28;20406;-92
2023/04/21 11:17:33;;;;;;;2.97;2.60;;;;;;;;;;4999138;28;20053;-90
2023/04/21 11:20:01;;;;;;;4.10;2.58;;;;;;;;;;5002948;28;20049;-91
2023/04/21 11:22:28;;;;;;;4.03;2.78;;;;;;;;;;4999184;28;20062;-90
2023/04/21 11:24:57;;;;;;;3.92;2.47;;;;;;;;;;5016250;28;20093;-90
2023/04/21 11:27:28;;;;;;;7.20;2.47;;;;;;;;;;4997349;28;20137;-89
2023/04/21 11:29:56;;;;;;;3.15;2.65;;;;;;;;;;5015980;28;20060;-89
2023/04/21 11:32:24;;;;;;;4.13;2.22;;;;;;;;;;4998693;28;20046;-89
2023/04/21 11:34:51;;;;;;;2.83;2.45;;;;;;;;;;4998476;28;20050;-90
2023/04/21 11:37:26;;;;;;;2.97;2.20;;;;;;;;;;4999041;28;20409;-89
2023/04/21 11:39:58;;;;;;;5.10;2.42;;;;;;;;;;4998468;28;20049;-89
2023/04/21 11:42:26;;;;;;;7.32;2.70;;;;;;;;;;4998459;28;20054;-89
2023/04/21 11:44:55;;;;;;;2.30;2.20;;;;;;;;;;4998562;28;20054;-86
2023/04/21 11:47:23;;;;;;;3.55;2.30;;;;;;;;;;4998594;28;20104;-90
2023/04/21 11:49:55;;;;;;;5.20;2.15;;;;;;;;;;4998366;28;20045;-88
2023/04/21 11:52:26;;;;;;;3.45;1.90;;;;;;;;;;4998718;28;20058;-89
2023/04/21 11:54:55;;;;;;;3.58;2.20;;;;;;;;;;5015512;28;20097;-89
2023/04/21 11:57:23;;;;;;;3.92;2.65;;;;;;;;;;4998358;28;20053;-88
2023/04/21 11:59:51;;;;;;;2.42;2.05;;;;;;;;;;5015316;28;20060;-89
2023/04/21 12:02:25;;;;;;;5.80;2.38;;;;;;;;;;5015339;28;20064;-89
2023/04/21 12:04:56;;;;;;;2.83;2.20;;;;;;;;;;5015156;28;20072;-89
2023/04/21 12:07:24;;;;;;;1.80;1.63;;;;;;;;;;5015233;28;20119;-89
2023/04/21 12:09:51;;;;;;;2.97;2.13;;;;;;;;;;4998058;28;20050;-90
2023/04/21 12:12:19;;;;;;;3.03;1.63;;;;;;;;;;5014953;28;20401;-91
2023/04/21 12:14:46;;;;;;;2.47;2.28;;;;;;;;;;4997984;28;20046;-90
2023/04/21 12:17:13;;;;;;;2.22;2.10;;;;;;;;;;5015102;28;20409;-90
2023/04/21 12:19:41;;;;;;;3.00;2.10;;;;;;;;;;4997517;28;20050;-89
2023/04/21 12:22:09;;;;;;;5.55;2.42;;;;;;;;;;4997655;28;20096;-87
2023/04/21 12:24:37;;;;;;;2.67;2.20;;;;;;;;;;4997448;28;20521;-89
2023/04/21 12:27:05;;;;;;;2.97;2.13;;;;;;;;;;5014822;28;20053;-88
2023/04/21 12:29:37;;;;;;;2.42;2.10;;;;;;;;;;4997439;28;20085;-90
2023/04/21 12:32:05;;;;;;;1.95;1.85;;;;;;;;;;4997559;28;20383;-89
2023/04/21 12:34:33;;;;;;;2.75;2.03;;;;;;;;;;4997355;28;20053;-88
2023/04/21 12:37:00;;;;;;;2.70;2.10;;;;;;;;;;4997595;28;20060;-88
2023/04/21 12:39:28;;;;;;;2.20;2.00;;;;;;;;;;4997262;28;20058;-88
2023/04/21 12:41:57;;;;;;;4.57;2.20;;;;;;;;;;5000431;28;20107;-85
2023/04/21 12:44:24;;;;;;;4.22;2.60;;;;;;;;;;4997932;28;20057;-86
2023/04/21 12:46:52;;;;;;;4.38;1.88;;;;;;;;;;4998168;28;20074;-90
2023/04/21 12:49:19;;;;;;;4.75;2.22;;;;;;;;;;4998061;28;20127;-85
2023/04/21 12:51:46;;;;;;;4.25;1.67;;;;;;;;;;5014761;28;20046;-88
2023/04/21 12:54:14;;;;;;;5.40;2.10;;;;;;;;;;5014214;28;20049;-90
2023/04/21 12:56:42;;;;;;;3.05;2.00;;;;;;;;;;4997410;28;20045;-83
2023/04/21 12:59:10;;;;;;;3.08;1.98;;;;;;;;;;5014225;28;20426;-88
2023/04/21 13:01:38;;;;;;;3.88;2.05;;;;;;;;;;5014321;28;20061;-89
2023/04/21 13:04:05;;;;;;;2.00;1.90;;;;;;;;;;4996903;28;20135;-87
2023/04/21 13:06:33;;;;;;;2.00;1.83;;;;;;;;;;4997186;28;20490;-89
2023/04/21 13:09:01;;;;;;;2.75;2.03;;;;;;;;;;4997021;28;20109;-89
2023/04/21 13:11:29;;;;;;;2.22;1.98;;;;;;;;;;4997087;28;20052;-88
2023/04/21 13:13:56;;;;;;;6.10;2.33;;;;;;;;;;4996930;28;20054;-90
2023/04/21 13:16:24;;;;;;;2.95;2.05;;;;;;;;;;4997195;28;20054;-89
2023/04/21 13:18:53;;;;;;;2.95;1.92;;;;;;;;;;4997243;28;20111;-91
2023/04/21 13:21:21;;;;;;;4.65;2.47;;;;;;;;;;5014332;28;20060;-86
2023/04/21 13:23:48;;;;;;;2.63;1.95;;;;;;;;;;5014090;28;20049;-89
2023/04/21 13:26:17;;;;;;;2.55;1.98;;;;;;;;;;4996959;28;20061;-89
2023/04/21 13:28:44;;;;;;;7.00;2.40;;;;;;;;;;5013686;28;20050;-89
2023/04/21 13:31:13;;;;;;;3.30;2.17;;;;;;;;;;4996613;28;20409;-91
2023/04/21 13:33:41;;;;;;;3.15;2.30;;;;;;;;;;4996275;28;20053;-89
2023/04/21 13:36:09;;;;;;;12.05;7.32;;;;;;;;;;4996807;28;20056;-89
2023/04/21 13:38:39;;;;;;;9.05;5.20;;;;;;;;;;5013427;28;20053;-89
2023/04/21 13:41:07;;;;;;;15.45;7.57;;;;;;;;;;4996455;28;20093;-88
2023/04/21 13:43:35;;;;;;;2.65;2.42;;;;;;;;;;5013491;28;20049;-88
2023/04/21 13:46:02;;;;;;;26.58;10.52;;;;;;;;;;4996225;28;20490;-87
2023/04/21 13:48:29;;;;;;;35.85;15.80;;;;;;;;;;5013611;28;20057;-89
2023/04/21 13:50:56;;;;;;;35.72;17.90;;;;;;;;;;5019164;28;20050;-90
2023/04/21 13:53:24;;;;;;;7.93;4.13;;;;;;;;;;5020285;28;20057;-88
2023/04/21 13:55:53;;;;;;;16.60;8.82;;;;;;;;;;5020191;28;20049;-88
2023/04/21 13:58:20;;;;;;;37.83;19.83;;;;;;;;;;5001104;28;20065;-90
2023/04/21 14:00:48;;;;;;;11.13;7.00;;;;;;;;;;5002974;28;20508;-89
2023/04/21 14:03:15;;;;;;;16.48;10.05;;;;;;;;;;5002799;28;20057;-89
2023/04/21 14:05:43;;;;;;;8.27;3.40;;;;;;;;;;5019866;28;20127;-89
2023/04/21 14:08:10;;;;;;;10.85;7.57;;;;;;;;;;5002581;28;20046;-88
2023/04/21 14:10:37;;;;;;;9.23;5.55;;;;;;;;;;5019960;28;20056;-90
2023/04/21 14:13:05;;;;;;;26.65;17.48;;;;;;;;;;5002324;28;20506;-88
2023/04/21 14:15:32;;;;;;;9.82;7.40;;;;;;;;;;5002353;28;20049;-89
2023/04/21 14:17:59;;;;;;;5.03;3.05;;;;;;;;;;5002057;28;20060;-89
2023/04/21 14:20:27;;;;;;;6.03;4.30;;;;;;;;;;5002378;28;20050;-89
2023/04/21 14:22:54;;;;;;;2.85;2.38;;;;;;;;;;5002118;28;20073;-88
2023/04/21 14:25:21;;;;;;;5.30;2.25;;;;;;;;;;5019556;28;20204;-85
2023/04/21 14:27:48;;;;;;;3.50;2.28;;;;;;;;;;5002527;28;20410;-90
2023/04/21 14:30:16;;;;;;;6.18;5.55;;;;;;;;;;5002297;28;20062;-89
2023/04/21 14:32:44;;;;;;;6.65;3.10;;;;;;;;;;5002690;28;20073;-85